createdAt,value
2022-09-02T00:02:13.744Z,38.36
2022-09-02T00:04:46.653Z,38.47
2022-09-02T00:07:20.261Z,38.41
2022-09-02T00:09:54.036Z,38.71
2022-09-02T00:12:31.837Z,38.87
2022-09-02T00:15:01.735Z,38.51
2022-09-02T00:17:30.296Z,38.71
2022-09-02T00:20:04.473Z,38.48
2022-09-02T00:22:40.337Z,38.50
2022-09-02T00:25:16.269Z,38.52
2022-09-02T00:27:46.364Z,38.40
2022-09-02T00:30:22.271Z,38.69
2022-09-02T00:32:52.727Z,38.65
2022-09-02T00:35:25.999Z,38.87
2022-09-02T00:37:59.911Z,39.04
2022-09-02T00:40:33.055Z,38.57
2022-09-02T00:43:03.516Z,38.75
2022-09-02T00:45:36.447Z,38.71
2022-09-02T00:48:09.441Z,38.88
2022-09-02T00:50:42.981Z,38.64
2022-09-02T00:53:18.511Z,38.58
2022-09-02T00:55:54.266Z,38.78
2022-09-02T00:58:28.242Z,38.74
2022-09-02T01:01:03.436Z,38.51
2022-09-02T01:03:36.424Z,38.77
2022-09-02T01:06:21.950Z,38.66
2022-09-02T01:08:57.297Z,38.34
2022-09-02T01:11:37.579Z,38.45
2022-09-02T01:14:15.337Z,38.40
2022-09-02T01:16:56.417Z,38.09
2022-09-02T01:19:35.065Z,37.83
2022-09-02T01:22:20.015Z,37.73
2022-09-02T01:24:58.823Z,37.41
2022-09-02T01:27:28.873Z,37.62
2022-09-02T01:30:06.489Z,37.53
2022-09-02T01:32:39.353Z,37.20
2022-09-02T01:35:16.640Z,37.31
2022-09-02T01:37:55.568Z,37.55
2022-09-02T01:40:39.138Z,37.23
2022-09-02T01:43:15.815Z,37.41
2022-09-02T01:45:54.904Z,37.13
2022-09-02T01:48:32.976Z,37.28
2022-09-02T01:51:20.330Z,37.04
2022-09-02T01:53:58.769Z,37.05
2022-09-02T01:56:36.555Z,37.29
2022-09-02T01:59:11.756Z,37.25
2022-09-02T02:01:44.235Z,37.53
2022-09-02T02:04:16.732Z,37.62
2022-09-02T02:06:48.836Z,38.21
2022-09-02T02:09:22.846Z,38.40
2022-09-02T02:11:57.869Z,38.10
2022-09-02T02:14:31.038Z,38.37
2022-09-02T02:17:04.708Z,38.48
2022-09-02T02:19:34.485Z,38.43
2022-09-02T02:22:07.767Z,38.61
2022-09-02T02:24:38.526Z,38.59
2022-09-02T02:27:11.761Z,38.42
2022-09-02T02:29:42.291Z,38.75
2022-09-02T02:32:16.433Z,38.55
2022-09-02T02:34:52.499Z,38.71
2022-09-02T02:37:25.534Z,38.74
2022-09-02T02:39:58.377Z,38.56
2022-09-02T02:42:32.795Z,38.49
2022-09-02T02:45:09.514Z,38.60
2022-09-02T02:47:51.356Z,38.34
2022-09-02T02:50:27.982Z,38.83
2022-09-02T02:53:00.486Z,38.66
2022-09-02T02:55:31.227Z,38.66
2022-09-02T02:58:06.807Z,39.00
2022-09-02T03:00:42.485Z,38.82
2022-09-02T03:03:19.468Z,38.62
2022-09-02T03:05:57.307Z,38.72
2022-09-02T03:08:35.800Z,39.00
2022-09-02T03:11:10.725Z,38.69
2022-09-02T03:13:43.581Z,39.00
2022-09-02T03:16:13.451Z,39.08
2022-09-02T03:18:47.563Z,38.83
2022-09-02T03:21:24.731Z,38.78
2022-09-02T03:23:58.549Z,38.82
2022-09-02T03:26:33.969Z,38.82
2022-09-02T03:29:06.488Z,38.67
2022-09-02T03:31:38.145Z,39.08
2022-09-02T03:34:13.286Z,38.69
2022-09-02T03:36:46.564Z,38.98
2022-09-02T03:39:21.159Z,38.66
2022-09-02T03:41:57.564Z,38.68
2022-09-02T03:44:41.801Z,38.55
2022-09-02T03:47:17.455Z,38.58
2022-09-02T03:49:55.979Z,38.98
2022-09-02T03:52:29.190Z,38.78
2022-09-02T03:55:00.050Z,38.95
2022-09-02T03:57:37.674Z,39.06
2022-09-02T04:00:13.001Z,38.54
2022-09-02T04:02:51.340Z,38.76
2022-09-02T04:05:26.810Z,38.67
2022-09-02T04:08:01.650Z,38.81
2022-09-02T04:10:34.389Z,38.56
2022-09-02T04:13:04.402Z,39.17
2022-09-02T04:15:32.380Z,38.78
2022-09-02T04:18:07.840Z,38.76
2022-09-02T04:20:39.708Z,38.72
2022-09-02T04:23:15.531Z,39.00
2022-09-02T04:25:50.370Z,38.67
2022-09-02T04:28:20.908Z,38.75
2022-09-02T04:30:52.429Z,38.73
2022-09-02T04:33:25.793Z,39.11
2022-09-02T04:35:56.818Z,39.23
2022-09-02T04:38:31.532Z,39.14
2022-09-02T04:41:10.990Z,39.17
2022-09-02T04:43:42.924Z,39.01
2022-09-02T04:46:18.912Z,39.27
2022-09-02T04:49:00.054Z,39.17
2022-09-02T04:51:30.355Z,39.36
2022-09-02T04:54:08.047Z,39.05
2022-09-02T04:56:43.515Z,39.07
2022-09-02T04:59:17.380Z,38.91
2022-09-02T05:01:56.590Z,38.97
2022-09-02T05:04:28.641Z,39.03
2022-09-02T05:07:04.822Z,39.09
2022-09-02T05:09:43.060Z,39.21
2022-09-02T05:12:16.102Z,38.95
2022-09-02T05:14:56.842Z,38.96
2022-09-02T05:17:37.150Z,39.03
2022-09-02T05:20:13.729Z,38.78
2022-09-02T05:22:46.291Z,38.66
2022-09-02T05:25:21.573Z,38.76
2022-09-02T05:27:55.527Z,39.08
2022-09-02T05:30:31.882Z,38.93
2022-09-02T05:33:01.751Z,39.24
2022-09-02T05:35:36.367Z,39.04
2022-09-02T05:38:13.198Z,38.92
2022-09-02T05:40:49.960Z,38.91
2022-09-02T05:43:24.337Z,39.22
2022-09-02T05:45:57.178Z,39.07
2022-09-02T05:48:49.389Z,39.28
2022-09-02T05:51:26.825Z,39.22
2022-09-02T05:54:00.842Z,38.98
2022-09-02T05:56:40.122Z,39.07
2022-09-02T05:59:19.909Z,38.89
2022-09-02T06:02:02.308Z,38.76
2022-09-02T06:04:46.887Z,39.69
2022-09-02T06:07:26.655Z,39.09
2022-09-02T06:10:02.180Z,38.74
2022-09-02T06:12:42.624Z,38.42
2022-09-02T06:15:20.528Z,38.44
2022-09-02T06:17:54.070Z,38.10
2022-09-02T06:20:41.745Z,38.10
2022-09-02T06:23:19.490Z,37.90
2022-09-02T06:25:59.667Z,38.04
2022-09-02T06:28:30.199Z,37.53
2022-09-02T06:31:06.670Z,37.88
2022-09-02T06:33:45.714Z,37.83
2022-09-02T06:36:21.440Z,37.93
2022-09-02T06:38:59.747Z,37.92
2022-09-02T06:41:35.667Z,37.94
2022-09-02T06:44:08.352Z,38.39
2022-09-02T06:46:53.225Z,38.21
2022-09-02T06:49:36.740Z,37.45
2022-09-02T06:52:15.622Z,36.17
2022-09-02T06:54:55.438Z,36.95
2022-09-02T06:57:31.404Z,35.98
2022-09-02T07:00:15.288Z,35.58
2022-09-02T07:03:14.058Z,35.52
2022-09-02T07:05:48.651Z,35.24
2022-09-02T07:08:26.124Z,35.07
2022-09-02T07:11:04.097Z,35.39
2022-09-02T07:13:38.155Z,35.69
2022-09-02T07:16:17.475Z,36.22
2022-09-02T07:19:01.322Z,35.87
2022-09-02T07:21:33.484Z,36.41
2022-09-02T07:24:13.037Z,36.62
2022-09-02T07:26:47.006Z,37.07
2022-09-02T07:29:20.434Z,37.62
2022-09-02T07:31:59.007Z,37.76
2022-09-02T07:34:38.419Z,37.82
2022-09-02T07:37:11.280Z,37.96
2022-09-02T07:39:47.101Z,38.07
2022-09-02T07:42:22.419Z,38.09
2022-09-02T07:44:56.662Z,38.50
2022-09-02T07:47:30.243Z,38.40
2022-09-02T07:50:21.706Z,38.61
2022-09-02T07:53:07.299Z,38.79
2022-09-02T07:55:42.841Z,38.80
2022-09-02T07:58:18.135Z,39.02
2022-09-02T08:00:59.904Z,39.11
2022-09-02T08:03:33.443Z,39.09
2022-09-02T08:06:05.426Z,39.29
2022-09-02T08:08:37.201Z,39.52
2022-09-02T08:11:11.162Z,39.21
2022-09-02T08:13:48.071Z,39.17
2022-09-02T08:16:19.292Z,38.99
2022-09-02T08:18:52.778Z,39.13
2022-09-02T08:21:23.071Z,39.07
2022-09-02T08:24:00.598Z,38.61
2022-09-02T08:26:38.188Z,38.75
2022-09-02T08:29:07.676Z,38.84
2022-09-02T08:31:48.633Z,38.80
2022-09-02T08:34:24.064Z,38.60
2022-09-02T08:36:57.025Z,38.74
2022-09-02T08:39:29.998Z,38.50
2022-09-02T08:42:40.403Z,38.21
2022-09-02T08:45:35.334Z,38.40
2022-09-02T08:48:34.270Z,38.07
2022-09-02T08:51:10.390Z,38.08
2022-09-02T08:53:52.689Z,38.32
2022-09-02T08:56:23.345Z,37.87
2022-09-02T08:58:56.965Z,37.98
2022-09-02T09:01:40.698Z,37.26
2022-09-02T09:04:18.106Z,37.15
2022-09-02T09:07:14.921Z,36.44
2022-09-02T09:09:54.868Z,36.47
2022-09-02T09:13:09.188Z,36.10
2022-09-02T09:15:55.698Z,36.48
2022-09-02T09:18:41.511Z,36.10
2022-09-02T09:21:19.051Z,35.92
2022-09-02T09:23:53.091Z,35.47
2022-09-02T09:26:36.813Z,35.24
2022-09-02T09:29:06.094Z,35.13
2022-09-02T09:31:36.351Z,35.60
2022-09-02T09:34:18.564Z,35.49
2022-09-02T09:36:53.609Z,35.24
2022-09-02T09:39:34.571Z,35.31
2022-09-02T09:42:14.601Z,35.00
2022-09-02T09:44:57.460Z,35.15
2022-09-02T09:47:28.114Z,34.72
2022-09-02T09:50:19.403Z,34.38
2022-09-02T09:52:52.491Z,34.93
2022-09-02T09:55:29.900Z,34.44
2022-09-02T09:58:12.782Z,34.52
2022-09-02T10:00:52.687Z,34.38
2022-09-02T10:03:33.066Z,34.01
2022-09-02T10:06:25.297Z,34.09
2022-09-02T10:09:16.387Z,33.99
2022-09-02T10:12:05.794Z,34.05
2022-09-02T10:14:54.987Z,33.62
2022-09-02T10:17:38.372Z,33.57
2022-09-02T10:20:37.125Z,33.98
2022-09-02T10:23:47.589Z,33.92
2022-09-02T10:26:30.315Z,33.99
2022-09-02T10:29:25.718Z,33.81
2022-09-02T10:31:55.928Z,33.41
2022-09-02T10:34:38.025Z,33.41
2022-09-02T10:37:23.881Z,33.33
2022-09-02T10:40:09.594Z,33.32
2022-09-02T10:42:43.641Z,33.80
2022-09-02T10:45:11.329Z,33.52
2022-09-02T10:48:08.226Z,33.50
2022-09-02T10:51:13.240Z,33.25
2022-09-02T10:54:17.541Z,33.27
2022-09-02T10:56:59.476Z,33.22
2022-09-02T10:59:41.807Z,33.50
2022-09-02T11:02:18.261Z,33.55
2022-09-02T11:05:14.112Z,34.02
2022-09-02T11:08:01.403Z,34.11
2022-09-02T11:11:07.003Z,34.05
2022-09-02T11:13:47.153Z,33.90
2022-09-02T11:16:43.088Z,33.84
2022-09-02T11:19:21.830Z,34.15
2022-09-02T11:22:26.789Z,33.68
2022-09-02T11:25:18.991Z,34.01
2022-09-02T11:28:02.608Z,33.81
2022-09-02T11:33:29.439Z,34.09
2022-09-02T11:36:06.196Z,34.20
2022-09-02T11:38:48.644Z,34.34
2022-09-02T11:41:38.037Z,34.04
2022-09-02T11:44:31.397Z,34.04
2022-09-02T11:47:25.272Z,34.24
2022-09-02T11:50:34.708Z,34.64
2022-09-02T11:53:25.509Z,34.64
2022-09-02T11:56:10.364Z,34.43
2022-09-02T11:58:43.301Z,34.58
2022-09-02T12:01:33.300Z,34.10
2022-09-02T12:04:56.302Z,34.22
2022-09-02T12:07:13.001Z,33.70
2022-09-02T12:09:47.797Z,33.78
2022-09-02T12:12:40.698Z,34.03
2022-09-02T12:15:17.680Z,33.63
2022-09-02T12:17:48.215Z,33.97
2022-09-02T12:20:40.233Z,33.85
2022-09-02T12:23:31.067Z,33.65
2022-09-02T12:26:15.856Z,33.67
2022-09-02T12:28:51.305Z,33.72
2022-09-02T12:31:31.607Z,34.09
2022-09-02T12:34:05.360Z,34.06
2022-09-02T12:36:42.848Z,33.76
2022-09-02T12:39:27.815Z,34.02
2022-09-02T12:42:11.272Z,34.20
2022-09-02T12:44:48.905Z,34.10
2022-09-02T12:47:20.091Z,34.51
2022-09-02T12:50:19.820Z,34.25
2022-09-02T12:53:07.450Z,34.45
2022-09-02T12:55:36.749Z,34.71
2022-09-02T12:58:17.194Z,34.30
2022-09-02T13:01:05.849Z,34.57
2022-09-02T13:04:01.360Z,34.35
2022-09-02T13:06:37.630Z,34.91
2022-09-02T13:09:30.317Z,34.75
2022-09-02T13:12:43.717Z,34.89
2022-09-02T13:15:36.837Z,34.98
2022-09-02T13:18:43.589Z,35.13
2022-09-02T13:21:29.866Z,35.20
2022-09-02T13:24:18.056Z,35.09
2022-09-02T13:26:58.822Z,34.75
2022-09-02T13:29:48.599Z,34.94
2022-09-02T13:32:27.427Z,34.86
2022-09-02T13:35:08.130Z,35.22
2022-09-02T13:37:43.514Z,35.03
2022-09-02T13:40:34.301Z,34.86
2022-09-02T13:43:12.892Z,34.43
2022-09-02T13:45:45.273Z,33.68
2022-09-02T13:48:25.584Z,33.49
2022-09-02T13:51:00.087Z,32.85
2022-09-02T13:53:49.365Z,33.74
2022-09-02T13:56:36.097Z,32.75
2022-09-02T13:59:10.322Z,33.65
2022-09-02T14:01:40.353Z,33.56
2022-09-02T14:04:15.815Z,33.88
2022-09-02T14:06:47.076Z,33.72
2022-09-02T14:09:29.958Z,33.91
2022-09-02T14:11:59.582Z,33.49
2022-09-02T14:14:31.119Z,33.94
2022-09-02T14:17:22.534Z,34.36
2022-09-02T14:19:54.076Z,33.63
2022-09-02T14:22:32.891Z,33.86
2022-09-02T14:25:14.249Z,34.02
2022-09-02T14:27:53.559Z,33.81
2022-09-02T14:30:35.725Z,34.87
2022-09-02T14:33:29.277Z,34.10
2022-09-02T14:36:12.244Z,33.64
2022-09-02T14:38:49.106Z,33.70
2022-09-02T14:41:18.705Z,33.19
2022-09-02T14:44:12.933Z,33.10
2022-09-02T14:47:15.461Z,33.14
2022-09-02T14:49:56.253Z,32.94
2022-09-02T14:52:38.636Z,33.73
2022-09-02T14:55:37.391Z,33.54
2022-09-02T14:58:11.749Z,33.62
2022-09-02T15:00:55.698Z,33.93
2022-09-02T15:03:31.079Z,33.91
2022-09-02T15:06:01.879Z,33.64
2022-09-02T15:08:32.164Z,33.97
2022-09-02T15:11:05.724Z,34.17
2022-09-02T15:13:39.068Z,34.14
2022-09-02T15:16:07.118Z,34.18
2022-09-02T15:18:36.577Z,34.44
2022-09-02T15:21:07.718Z,35.04
2022-09-02T15:23:47.832Z,34.69
2022-09-02T15:26:24.821Z,34.59
2022-09-02T15:28:56.101Z,34.89
2022-09-02T15:31:27.422Z,34.68
2022-09-02T15:34:00.652Z,35.00
2022-09-02T15:36:31.612Z,34.95
2022-09-02T15:39:02.747Z,35.07
2022-09-02T15:41:37.569Z,35.27
2022-09-02T15:44:09.717Z,35.22
2022-09-02T15:46:44.056Z,35.40
2022-09-02T15:49:16.025Z,35.44
2022-09-02T15:51:54.985Z,35.26
2022-09-02T15:54:28.776Z,35.28
2022-09-02T15:57:04.924Z,35.24
2022-09-02T15:59:37.597Z,35.56
2022-09-02T16:02:19.008Z,35.73
2022-09-02T16:04:52.613Z,35.57
2022-09-02T16:07:28.526Z,35.58
2022-09-02T16:10:03.690Z,35.40
2022-09-02T16:12:41.392Z,35.33
2022-09-02T16:15:12.837Z,35.42
2022-09-02T16:17:46.051Z,35.52
2022-09-02T16:20:21.317Z,35.89
2022-09-02T16:22:55.383Z,35.54
2022-09-02T16:25:34.670Z,35.63
2022-09-02T16:28:08.384Z,35.43
2022-09-02T16:30:45.895Z,35.52
2022-09-02T16:33:19.704Z,35.58
2022-09-02T16:35:56.595Z,36.08
2022-09-02T16:38:26.959Z,35.99
2022-09-02T16:41:03.569Z,35.99
2022-09-02T16:43:37.918Z,35.63
2022-09-02T16:46:13.320Z,35.57
2022-09-02T16:48:50.899Z,35.88
2022-09-02T16:51:41.243Z,35.50
2022-09-02T16:54:31.257Z,35.83
2022-09-02T16:57:10.795Z,35.82
2022-09-02T16:59:50.400Z,36.05
2022-09-02T17:02:24.816Z,35.96
2022-09-02T17:04:58.251Z,36.16
2022-09-02T17:07:37.825Z,36.27
2022-09-02T17:10:23.111Z,36.84
2022-09-02T17:12:57.371Z,37.41
2022-09-02T17:15:31.975Z,37.32
2022-09-02T17:18:05.916Z,37.47
2022-09-02T17:20:43.791Z,37.62
2022-09-02T17:23:17.642Z,37.66
2022-09-02T17:26:00.781Z,37.75
2022-09-02T17:28:31.664Z,37.83
2022-09-02T17:31:05.811Z,37.98
2022-09-02T17:33:36.273Z,38.02
2022-09-02T17:36:12.106Z,37.95
2022-09-02T17:38:42.346Z,37.48
2022-09-02T17:41:28.894Z,37.82
2022-09-02T17:43:56.717Z,37.36
2022-09-02T17:46:27.946Z,37.25
2022-09-02T17:49:15.767Z,37.15
2022-09-02T17:51:47.432Z,37.54
2022-09-02T17:54:15.774Z,37.28
2022-09-02T17:56:55.527Z,37.33
2022-09-02T17:59:51.137Z,37.11
2022-09-02T18:02:33.648Z,37.41
2022-09-02T18:05:08.935Z,37.29
2022-09-02T18:07:42.012Z,37.11
2022-09-02T18:10:14.777Z,37.07
2022-09-02T18:12:44.977Z,37.24
2022-09-02T18:15:21.026Z,37.36
2022-09-02T18:17:58.661Z,37.04
2022-09-02T18:20:45.126Z,37.25
2022-09-02T18:23:27.614Z,37.35
2022-09-02T18:26:22.013Z,37.19
2022-09-02T18:28:54.857Z,37.19
2022-09-02T18:31:52.394Z,37.46
2022-09-02T18:34:46.032Z,37.29
2022-09-02T18:37:39.638Z,37.73
2022-09-02T18:40:44.203Z,37.29
2022-09-02T18:43:41.930Z,37.44
2022-09-02T18:46:11.816Z,37.45
2022-09-02T18:48:52.908Z,37.32
2022-09-02T18:51:43.784Z,37.10
2022-09-02T18:54:54.412Z,37.21
2022-09-02T18:57:29.404Z,37.23
2022-09-02T19:00:14.126Z,37.33
2022-09-02T19:03:00.060Z,37.21
2022-09-02T19:05:33.625Z,37.35
2022-09-02T19:08:21.831Z,36.87
2022-09-02T19:11:02.183Z,37.28
2022-09-02T19:13:55.557Z,37.38
2022-09-02T19:16:36.429Z,37.38
2022-09-02T19:19:12.323Z,37.23
2022-09-02T19:21:51.765Z,37.44
2022-09-02T19:24:32.978Z,37.31
2022-09-02T19:27:10.997Z,37.61
2022-09-02T19:29:50.921Z,37.45
2022-09-02T19:32:32.403Z,37.46
2022-09-02T19:35:05.813Z,37.47
2022-09-02T19:37:43.231Z,37.14
2022-09-02T19:40:33.726Z,37.37
2022-09-02T19:43:07.254Z,37.38
2022-09-02T19:45:39.114Z,37.01
2022-09-02T19:48:13.556Z,37.40
2022-09-02T19:50:46.598Z,37.47
2022-09-02T19:53:25.957Z,37.58
2022-09-02T19:55:54.458Z,37.44
2022-09-02T19:58:27.006Z,37.37
2022-09-02T20:01:03.400Z,37.42
2022-09-02T20:03:35.383Z,37.32
2022-09-02T20:06:06.056Z,37.41
2022-09-02T20:08:39.176Z,37.28
2022-09-02T20:11:11.546Z,37.31
2022-09-02T20:13:41.830Z,37.63
2022-09-02T20:16:30.360Z,37.33
2022-09-02T20:18:59.873Z,37.38
2022-09-02T20:21:42.134Z,37.01
2022-09-02T20:24:12.245Z,37.28
2022-09-02T20:27:06.900Z,37.41
2022-09-02T20:30:11.199Z,37.10
2022-09-02T20:32:55.107Z,37.53
2022-09-02T20:35:31.873Z,37.67
2022-09-02T20:38:30.140Z,37.30
2022-09-02T20:41:03.845Z,37.24
2022-09-02T20:44:06.635Z,37.33
2022-09-02T20:46:59.955Z,37.37
2022-09-02T20:49:38.757Z,37.38
2022-09-02T20:52:12.061Z,37.38
2022-09-02T20:54:51.408Z,37.36
2022-09-02T20:58:20.783Z,37.33
2022-09-02T21:01:01.361Z,37.51
2022-09-02T21:04:07.463Z,37.35
2022-09-02T21:06:42.849Z,37.78
2022-09-02T21:09:30.289Z,37.52
2022-09-02T21:12:10.456Z,37.33
2022-09-02T21:14:48.640Z,37.70
2022-09-02T21:18:04.620Z,37.46
2022-09-02T21:20:48.849Z,37.39
2022-09-02T21:23:35.789Z,37.55
2022-09-02T21:26:17.026Z,37.38
2022-09-02T21:28:51.032Z,37.28
2022-09-02T21:31:33.850Z,37.53
2022-09-02T21:34:10.565Z,37.54
2022-09-02T21:36:44.281Z,37.45
2022-09-02T21:39:18.055Z,37.40
2022-09-02T21:42:14.308Z,37.33
2022-09-02T21:44:53.690Z,37.53
2022-09-02T21:47:38.626Z,37.32
2022-09-02T21:50:31.530Z,37.57
2022-09-02T21:53:51.009Z,37.42
2022-09-02T21:56:43.890Z,37.57
2022-09-02T21:59:22.346Z,37.39
2022-09-02T22:02:03.442Z,37.55
2022-09-02T22:05:03.413Z,37.54
2022-09-02T22:07:50.051Z,37.44
2022-09-02T22:10:29.569Z,37.62
2022-09-02T22:13:03.561Z,37.40
2022-09-02T22:15:37.852Z,37.67
2022-09-02T22:18:31.118Z,37.39
2022-09-02T22:21:02.845Z,37.40
2022-09-02T22:23:35.069Z,37.48
2022-09-02T22:26:27.047Z,37.44
2022-09-02T22:29:03.733Z,37.30
2022-09-02T22:31:36.181Z,37.45
2022-09-02T22:34:12.148Z,37.37
2022-09-02T22:36:57.616Z,37.45
2022-09-02T22:39:52.520Z,37.30
2022-09-02T22:42:35.697Z,37.25
2022-09-02T22:45:28.316Z,37.20
2022-09-02T22:48:23.434Z,37.51
2022-09-02T22:51:19.317Z,37.51
2022-09-02T22:54:09.089Z,37.45
2022-09-02T22:56:42.039Z,37.64
2022-09-02T22:59:30.611Z,37.67
2022-09-02T23:02:41.041Z,37.46
2022-09-02T23:05:52.040Z,37.45
2022-09-02T23:08:26.244Z,37.60
2022-09-02T23:11:14.863Z,37.25
2022-09-02T23:14:02.178Z,37.67
2022-09-02T23:17:09.097Z,37.39
2022-09-02T23:20:10.823Z,37.54
2022-09-02T23:22:56.745Z,37.61
2022-09-02T23:25:43.019Z,37.68
2022-09-02T23:28:19.580Z,37.49
2022-09-02T23:31:01.480Z,37.65
2022-09-02T23:34:01.398Z,37.70
2022-09-02T23:36:57.788Z,37.46
2022-09-02T23:39:52.587Z,37.61
2022-09-02T23:42:25.159Z,37.48
2022-09-02T23:45:01.102Z,37.45
2022-09-02T23:47:52.492Z,37.50
2022-09-02T23:50:47.432Z,37.27
2022-09-02T23:53:33.795Z,37.55
2022-09-02T23:56:10.076Z,37.54
2022-09-02T23:59:22.170Z,37.79
